Amherst, Virginia
Current Conditions -  °F | °C
As of 1:54 PM on Friday 24 Oct 2014 (Local Time) from KLYH Reporting Station
Clear Clear  
Wind Chill: 66°   Ceiling: Unl
Heat Index: 66°   Visibility: 10mi
Dew Point: 38°   Wind: 5mph
Humidity: 36%   Direction: NA
Pressure: 30"   Gusts: NA
Location:  37.59°N, 79.05°W
Report Text: KLYH 241754Z VRB04KT 10SM CLR 19/03 A3000 RMK AO2 SLP154 T01890033 10194 20039 58020
Loading
Personal Weather Stations






























Interactive Weather Map
Tropical Storm Tracking
New forecast layout! Learn more

10-Day Weather Forecast

Advertisements
Track Severe Weather on mobile